sensor_id;sensor_type;location;lat;lon;timestamp;P1;durP1;ratioP1;P2;durP2;ratioP2
51525;SDS011;37611;51.794;21.590;2023-05-07T00:03:49;4.60;;;3.50;;
51525;SDS011;37611;51.794;21.590;2023-05-07T00:07:51;4.30;;;3.10;;
51525;SDS011;37611;51.794;21.590;2023-05-07T00:11:54;4.80;;;3.40;;
51525;SDS011;37611;51.794;21.590;2023-05-07T00:15:56;6.20;;;3.10;;
51525;SDS011;37611;51.794;21.590;2023-05-07T00:19:57;5.20;;;3.60;;
51525;SDS011;37611;51.794;21.590;2023-05-07T00:23:59;4.40;;;3.50;;
51525;SDS011;37611;51.794;21.590;2023-05-07T00:28:01;3.90;;;2.70;;
51525;SDS011;37611;51.794;21.590;2023-05-07T00:32:05;5.70;;;3.30;;
51525;SDS011;37611;51.794;21.590;2023-05-07T00:36:06;3.90;;;3.00;;
51525;SDS011;37611;51.794;21.590;2023-05-07T00:40:08;6.50;;;3.40;;
51525;SDS011;37611;51.794;21.590;2023-05-07T00:44:11;3.90;;;3.20;;
51525;SDS011;37611;51.794;21.590;2023-05-07T00:48:12;4.70;;;3.20;;
51525;SDS011;37611;51.794;21.590;2023-05-07T00:52:16;6.40;;;3.20;;
51525;SDS011;37611;51.794;21.590;2023-05-07T00:56:19;3.10;;;2.50;;
51525;SDS011;37611;51.794;21.590;2023-05-07T01:00:22;3.50;;;2.30;;
51525;SDS011;37611;51.794;21.590;2023-05-07T01:04:26;3.40;;;2.80;;
51525;SDS011;37611;51.794;21.590;2023-05-07T01:08:28;3.10;;;2.20;;
51525;SDS011;37611;51.794;21.590;2023-05-07T01:12:31;4.90;;;2.40;;
51525;SDS011;37611;51.794;21.590;2023-05-07T01:16:33;3.80;;;2.50;;
51525;SDS011;37611;51.794;21.590;2023-05-07T01:20:35;3.20;;;2.20;;
51525;SDS011;37611;51.794;21.590;2023-05-07T01:24:37;3.60;;;2.20;;
51525;SDS011;37611;51.794;21.590;2023-05-07T01:28:39;3.90;;;2.00;;
51525;SDS011;37611;51.794;21.590;2023-05-07T01:36:49;2.20;;;1.90;;
51525;SDS011;37611;51.794;21.590;2023-05-07T01:40:51;2.80;;;2.40;;
51525;SDS011;37611;51.794;21.590;2023-05-07T01:44:54;2.00;;;1.80;;
51525;SDS011;37611;51.794;21.590;2023-05-07T01:48:56;2.60;;;2.20;;
51525;SDS011;37611;51.794;21.590;2023-05-07T01:52:58;2.60;;;2.10;;
51525;SDS011;37611;51.794;21.590;2023-05-07T01:56:59;5.10;;;2.10;;
51525;SDS011;37611;51.794;21.590;2023-05-07T02:01:01;2.00;;;1.70;;
51525;SDS011;37611;51.794;21.590;2023-05-07T02:05:03;3.50;;;2.20;;
51525;SDS011;37611;51.794;21.590;2023-05-07T02:09:06;2.50;;;2.00;;
51525;SDS011;37611;51.794;21.590;2023-05-07T02:13:08;2.60;;;2.00;;
51525;SDS011;37611;51.794;21.590;2023-05-07T02:17:09;3.50;;;2.00;;
51525;SDS011;37611;51.794;21.590;2023-05-07T02:21:11;4.20;;;2.20;;
51525;SDS011;37611;51.794;21.590;2023-05-07T02:25:13;3.50;;;2.00;;
51525;SDS011;37611;51.794;21.590;2023-05-07T02:29:15;2.90;;;2.30;;
51525;SDS011;37611;51.794;21.590;2023-05-07T02:33:17;3.20;;;1.80;;
51525;SDS011;37611;51.794;21.590;2023-05-07T02:37:18;3.40;;;1.90;;
51525;SDS011;37611;51.794;21.590;2023-05-07T02:41:20;2.60;;;2.10;;
51525;SDS011;37611;51.794;21.590;2023-05-07T02:45:22;3.30;;;1.70;;
51525;SDS011;37611;51.794;21.590;2023-05-07T02:49:24;4.20;;;1.90;;
51525;SDS011;37611;51.794;21.590;2023-05-07T02:53:26;2.80;;;2.30;;
51525;SDS011;37611;51.794;21.590;2023-05-07T02:57:28;3.00;;;2.00;;
51525;SDS011;37611;51.794;21.590;2023-05-07T03:01:30;3.70;;;2.00;;
51525;SDS011;37611;51.794;21.590;2023-05-07T03:05:32;2.70;;;2.40;;
51525;SDS011;37611;51.794;21.590;2023-05-07T03:09:33;4.30;;;2.30;;
51525;SDS011;37611;51.794;21.590;2023-05-07T03:13:35;3.00;;;2.50;;
51525;SDS011;37611;51.794;21.590;2023-05-07T03:17:37;4.30;;;1.90;;
51525;SDS011;37611;51.794;21.590;2023-05-07T03:21:39;3.50;;;2.20;;
51525;SDS011;37611;51.794;21.590;2023-05-07T03:25:40;4.60;;;2.40;;
51525;SDS011;37611;51.794;21.590;2023-05-07T03:29:42;4.40;;;2.50;;
51525;SDS011;37611;51.794;21.590;2023-05-07T03:33:51;3.70;;;2.10;;
51525;SDS011;37611;51.794;21.590;2023-05-07T03:37:54;3.10;;;2.20;;
51525;SDS011;37611;51.794;21.590;2023-05-07T03:41:56;4.20;;;2.70;;
51525;SDS011;37611;51.794;21.590;2023-05-07T03:45:58;4.00;;;2.50;;
51525;SDS011;37611;51.794;21.590;2023-05-07T03:49:59;3.50;;;2.10;;
51525;SDS011;37611;51.794;21.590;2023-05-07T03:54:01;3.70;;;2.70;;
51525;SDS011;37611;51.794;21.590;2023-05-07T03:58:03;5.30;;;2.40;;
51525;SDS011;37611;51.794;21.590;2023-05-07T04:02:05;3.30;;;2.40;;
51525;SDS011;37611;51.794;21.590;2023-05-07T04:06:07;4.80;;;2.50;;
51525;SDS011;37611;51.794;21.590;2023-05-07T04:10:09;2.80;;;2.20;;
51525;SDS011;37611;51.794;21.590;2023-05-07T04:14:11;4.00;;;2.30;;
51525;SDS011;37611;51.794;21.590;2023-05-07T04:18:13;3.00;;;2.30;;
51525;SDS011;37611;51.794;21.590;2023-05-07T04:22:14;3.70;;;2.30;;
51525;SDS011;37611;51.794;21.590;2023-05-07T04:26:17;2.50;;;2.00;;
51525;SDS011;37611;51.794;21.590;2023-05-07T04:30:19;3.10;;;2.50;;
51525;SDS011;37611;51.794;21.590;2023-05-07T04:34:21;3.40;;;2.80;;
51525;SDS011;37611;51.794;21.590;2023-05-07T04:38:23;2.90;;;2.30;;
51525;SDS011;37611;51.794;21.590;2023-05-07T04:42:25;2.40;;;2.10;;
51525;SDS011;37611;51.794;21.590;2023-05-07T04:46:26;4.00;;;3.60;;
51525;SDS011;37611;51.794;21.590;2023-05-07T04:50:28;2.90;;;2.60;;
51525;SDS011;37611;51.794;21.590;2023-05-07T04:54:30;3.10;;;2.40;;
51525;SDS011;37611;51.794;21.590;2023-05-07T04:58:32;3.00;;;2.70;;
51525;SDS011;37611;51.794;21.590;2023-05-07T05:02:33;2.60;;;2.20;;
51525;SDS011;37611;51.794;21.590;2023-05-07T05:06:35;4.00;;;2.50;;
51525;SDS011;37611;51.794;21.590;2023-05-07T05:10:37;4.50;;;2.50;;
51525;SDS011;37611;51.794;21.590;2023-05-07T05:14:39;3.60;;;2.60;;
51525;SDS011;37611;51.794;21.590;2023-05-07T05:18:41;3.30;;;2.80;;
51525;SDS011;37611;51.794;21.590;2023-05-07T05:22:43;3.20;;;2.80;;
51525;SDS011;37611;51.794;21.590;2023-05-07T05:26:44;3.50;;;2.60;;
51525;SDS011;37611;51.794;21.590;2023-05-07T05:30:46;4.90;;;4.40;;
51525;SDS011;37611;51.794;21.590;2023-05-07T05:34:48;5.70;;;4.00;;
51525;SDS011;37611;51.794;21.590;2023-05-07T05:38:49;5.20;;;3.80;;
51525;SDS011;37611;51.794;21.590;2023-05-07T05:42:51;6.00;;;4.50;;
51525;SDS011;37611;51.794;21.590;2023-05-07T05:46:53;7.90;;;6.10;;
51525;SDS011;37611;51.794;21.590;2023-05-07T05:51:00;5.50;;;4.80;;
51525;SDS011;37611;51.794;21.590;2023-05-07T05:55:02;5.80;;;2.90;;
51525;SDS011;37611;51.794;21.590;2023-05-07T05:59:04;3.10;;;2.70;;
51525;SDS011;37611;51.794;21.590;2023-05-07T06:03:06;4.60;;;3.10;;
51525;SDS011;37611;51.794;21.590;2023-05-07T06:07:07;10.90;;;9.70;;
51525;SDS011;37611;51.794;21.590;2023-05-07T06:11:09;5.50;;;4.30;;
51525;SDS011;37611;51.794;21.590;2023-05-07T06:15:11;15.80;;;14.40;;
51525;SDS011;37611;51.794;21.590;2023-05-07T06:19:13;20.40;;;14.90;;
51525;SDS011;37611;51.794;21.590;2023-05-07T06:23:15;114.70;;;72.20;;
51525;SDS011;37611;51.794;21.590;2023-05-07T06:27:17;254.80;;;153.80;;
51525;SDS011;37611;51.794;21.590;2023-05-07T06:31:19;343.60;;;206.50;;
51525;SDS011;37611;51.794;21.590;2023-05-07T06:35:21;157.10;;;109.90;;
51525;SDS011;37611;51.794;21.590;2023-05-07T06:39:23;42.70;;;28.80;;
51525;SDS011;37611;51.794;21.590;2023-05-07T06:43:25;44.50;;;29.60;;
51525;SDS011;37611;51.794;21.590;2023-05-07T06:47:27;67.60;;;44.50;;
51525;SDS011;37611;51.794;21.590;2023-05-07T06:51:29;9.80;;;8.00;;
51525;SDS011;37611;51.794;21.590;2023-05-07T06:55:31;4.60;;;3.70;;
51525;SDS011;37611;51.794;21.590;2023-05-07T06:59:33;4.40;;;3.70;;
51525;SDS011;37611;51.794;21.590;2023-05-07T07:03:35;5.30;;;4.30;;
51525;SDS011;37611;51.794;21.590;2023-05-07T07:07:36;7.00;;;4.80;;
51525;SDS011;37611;51.794;21.590;2023-05-07T07:11:38;7.40;;;3.80;;
51525;SDS011;37611;51.794;21.590;2023-05-07T07:15:40;9.70;;;6.60;;
51525;SDS011;37611;51.794;21.590;2023-05-07T07:19:42;11.60;;;7.20;;
51525;SDS011;37611;51.794;21.590;2023-05-07T07:23:43;7.30;;;4.60;;
51525;SDS011;37611;51.794;21.590;2023-05-07T07:27:45;5.90;;;3.50;;
51525;SDS011;37611;51.794;21.590;2023-05-07T07:31:48;5.30;;;3.10;;
51525;SDS011;37611;51.794;21.590;2023-05-07T07:35:52;4.50;;;3.20;;
51525;SDS011;37611;51.794;21.590;2023-05-07T07:39:54;8.00;;;4.60;;
51525;SDS011;37611;51.794;21.590;2023-05-07T07:43:56;5.40;;;3.30;;
51525;SDS011;37611;51.794;21.590;2023-05-07T07:47:58;8.70;;;4.60;;
51525;SDS011;37611;51.794;21.590;2023-05-07T07:51:59;7.40;;;3.70;;
51525;SDS011;37611;51.794;21.590;2023-05-07T07:56:02;4.80;;;3.20;;
51525;SDS011;37611;51.794;21.590;2023-05-07T08:00:04;9.80;;;3.30;;
51525;SDS011;37611;51.794;21.590;2023-05-07T08:04:08;9.40;;;5.70;;
51525;SDS011;37611;51.794;21.590;2023-05-07T08:08:10;12.50;;;7.50;;
51525;SDS011;37611;51.794;21.590;2023-05-07T08:12:11;10.30;;;7.40;;
51525;SDS011;37611;51.794;21.590;2023-05-07T08:16:13;12.50;;;10.60;;
51525;SDS011;37611;51.794;21.590;2023-05-07T08:20:15;9.70;;;6.00;;
51525;SDS011;37611;51.794;21.590;2023-05-07T08:24:17;14.10;;;7.90;;
51525;SDS011;37611;51.794;21.590;2023-05-07T08:28:19;11.70;;;7.90;;
51525;SDS011;37611;51.794;21.590;2023-05-07T08:32:22;8.00;;;6.00;;
51525;SDS011;37611;51.794;21.590;2023-05-07T08:36:24;5.80;;;4.60;;
51525;SDS011;37611;51.794;21.590;2023-05-07T08:40:27;7.10;;;4.50;;
51525;SDS011;37611;51.794;21.590;2023-05-07T08:44:32;5.20;;;4.40;;
51525;SDS011;37611;51.794;21.590;2023-05-07T08:48:36;6.50;;;5.00;;
51525;SDS011;37611;51.794;21.590;2023-05-07T08:52:39;9.90;;;8.30;;
51525;SDS011;37611;51.794;21.590;2023-05-07T08:56:42;7.60;;;6.60;;
51525;SDS011;37611;51.794;21.590;2023-05-07T09:00:43;10.70;;;8.80;;
51525;SDS011;37611;51.794;21.590;2023-05-07T09:04:45;7.30;;;5.30;;
51525;SDS011;37611;51.794;21.590;2023-05-07T09:08:50;5.20;;;4.70;;
51525;SDS011;37611;51.794;21.590;2023-05-07T09:12:53;6.70;;;5.50;;
51525;SDS011;37611;51.794;21.590;2023-05-07T09:16:55;11.10;;;8.80;;
51525;SDS011;37611;51.794;21.590;2023-05-07T09:20:57;4.20;;;3.70;;
51525;SDS011;37611;51.794;21.590;2023-05-07T09:24:59;27.50;;;18.60;;
51525;SDS011;37611;51.794;21.590;2023-05-07T09:29:01;6.70;;;5.80;;
51525;SDS011;37611;51.794;21.590;2023-05-07T09:33:03;12.40;;;8.50;;
51525;SDS011;37611;51.794;21.590;2023-05-07T09:37:05;9.20;;;5.70;;
51525;SDS011;37611;51.794;21.590;2023-05-07T09:41:09;20.30;;;14.80;;
51525;SDS011;37611;51.794;21.590;2023-05-07T09:45:12;9.90;;;6.80;;
51525;SDS011;37611;51.794;21.590;2023-05-07T09:49:21;13.20;;;8.20;;
51525;SDS011;37611;51.794;21.590;2023-05-07T09:53:24;9.10;;;7.00;;
51525;SDS011;37611;51.794;21.590;2023-05-07T09:57:27;14.20;;;8.30;;
51525;SDS011;37611;51.794;21.590;2023-05-07T10:01:30;10.50;;;4.70;;
51525;SDS011;37611;51.794;21.590;2023-05-07T10:05:33;6.20;;;4.40;;
51525;SDS011;37611;51.794;21.590;2023-05-07T10:09:35;5.50;;;4.30;;
51525;SDS011;37611;51.794;21.590;2023-05-07T10:13:39;15.90;;;8.80;;
51525;SDS011;37611;51.794;21.590;2023-05-07T10:17:42;6.20;;;4.10;;
51525;SDS011;37611;51.794;21.590;2023-05-07T10:21:46;5.90;;;5.00;;
51525;SDS011;37611;51.794;21.590;2023-05-07T10:25:55;5.00;;;4.30;;
51525;SDS011;37611;51.794;21.590;2023-05-07T10:30:12;6.70;;;4.40;;
51525;SDS011;37611;51.794;21.590;2023-05-07T10:34:18;4.60;;;4.10;;
51525;SDS011;37611;51.794;21.590;2023-05-07T10:38:24;4.30;;;3.60;;
51525;SDS011;37611;51.794;21.590;2023-05-07T10:42:27;4.90;;;3.20;;
51525;SDS011;37611;51.794;21.590;2023-05-07T10:46:29;5.20;;;3.70;;
51525;SDS011;37611;51.794;21.590;2023-05-07T10:50:32;15.20;;;10.10;;
51525;SDS011;37611;51.794;21.590;2023-05-07T10:54:33;7.70;;;3.90;;
51525;SDS011;37611;51.794;21.590;2023-05-07T10:58:36;5.20;;;3.90;;
51525;SDS011;37611;51.794;21.590;2023-05-07T11:11:10;6.70;;;4.40;;
51525;SDS011;37611;51.794;21.590;2023-05-07T11:15:15;5.60;;;4.30;;
51525;SDS011;37611;51.794;21.590;2023-05-07T11:19:51;5.80;;;3.90;;
51525;SDS011;37611;51.794;21.590;2023-05-07T11:23:55;4.50;;;3.70;;
51525;SDS011;37611;51.794;21.590;2023-05-07T11:28:03;7.10;;;4.80;;
51525;SDS011;37611;51.794;21.590;2023-05-07T11:32:12;3.90;;;3.00;;
51525;SDS011;37611;51.794;21.590;2023-05-07T11:36:14;4.50;;;3.60;;
51525;SDS011;37611;51.794;21.590;2023-05-07T11:40:16;5.50;;;3.80;;
51525;SDS011;37611;51.794;21.590;2023-05-07T11:44:18;3.70;;;2.80;;
51525;SDS011;37611;51.794;21.590;2023-05-07T11:48:20;5.60;;;3.60;;
51525;SDS011;37611;51.794;21.590;2023-05-07T11:52:23;4.80;;;3.90;;
51525;SDS011;37611;51.794;21.590;2023-05-07T11:56:26;4.80;;;3.70;;
51525;SDS011;37611;51.794;21.590;2023-05-07T12:00:28;9.10;;;5.60;;
51525;SDS011;37611;51.794;21.590;2023-05-07T12:04:30;5.30;;;3.40;;
51525;SDS011;37611;51.794;21.590;2023-05-07T12:08:32;8.30;;;5.30;;
51525;SDS011;37611;51.794;21.590;2023-05-07T12:12:45;8.80;;;5.70;;
51525;SDS011;37611;51.794;21.590;2023-05-07T12:16:47;6.20;;;4.50;;
51525;SDS011;37611;51.794;21.590;2023-05-07T12:20:50;5.60;;;3.90;;
51525;SDS011;37611;51.794;21.590;2023-05-07T12:24:58;6.40;;;4.70;;
51525;SDS011;37611;51.794;21.590;2023-05-07T12:29:00;4.50;;;3.70;;
51525;SDS011;37611;51.794;21.590;2023-05-07T12:33:02;5.40;;;3.50;;
51525;SDS011;37611;51.794;21.590;2023-05-07T12:37:03;8.40;;;4.80;;
51525;SDS011;37611;51.794;21.590;2023-05-07T12:41:06;7.00;;;4.40;;
51525;SDS011;37611;51.794;21.590;2023-05-07T12:45:12;9.50;;;5.80;;
51525;SDS011;37611;51.794;21.590;2023-05-07T12:49:17;7.30;;;4.80;;
51525;SDS011;37611;51.794;21.590;2023-05-07T12:53:22;6.90;;;4.00;;
51525;SDS011;37611;51.794;21.590;2023-05-07T12:57:26;9.00;;;6.20;;
51525;SDS011;37611;51.794;21.590;2023-05-07T13:01:31;8.40;;;6.20;;
51525;SDS011;37611;51.794;21.590;2023-05-07T13:05:33;6.30;;;5.50;;
51525;SDS011;37611;51.794;21.590;2023-05-07T13:09:35;5.90;;;4.70;;
51525;SDS011;37611;51.794;21.590;2023-05-07T13:13:39;6.70;;;5.20;;
51525;SDS011;37611;51.794;21.590;2023-05-07T13:17:41;7.40;;;5.20;;
51525;SDS011;37611;51.794;21.590;2023-05-07T13:21:43;6.20;;;4.20;;
51525;SDS011;37611;51.794;21.590;2023-05-07T13:25:45;4.50;;;3.90;;
51525;SDS011;37611;51.794;21.590;2023-05-07T13:29:47;4.90;;;3.50;;
51525;SDS011;37611;51.794;21.590;2023-05-07T13:33:49;10.60;;;4.00;;
51525;SDS011;37611;51.794;21.590;2023-05-07T13:37:50;5.50;;;4.30;;
51525;SDS011;37611;51.794;21.590;2023-05-07T13:41:53;5.50;;;3.70;;
51525;SDS011;37611;51.794;21.590;2023-05-07T13:45:55;7.20;;;4.90;;
51525;SDS011;37611;51.794;21.590;2023-05-07T13:49:56;9.10;;;6.50;;
51525;SDS011;37611;51.794;21.590;2023-05-07T13:53:58;7.30;;;5.40;;
51525;SDS011;37611;51.794;21.590;2023-05-07T13:58:01;8.00;;;5.40;;
51525;SDS011;37611;51.794;21.590;2023-05-07T14:02:04;8.90;;;4.40;;
51525;SDS011;37611;51.794;21.590;2023-05-07T14:06:06;4.70;;;3.50;;
51525;SDS011;37611;51.794;21.590;2023-05-07T14:10:08;7.60;;;5.20;;
51525;SDS011;37611;51.794;21.590;2023-05-07T14:14:10;8.50;;;6.10;;
51525;SDS011;37611;51.794;21.590;2023-05-07T14:18:12;7.50;;;4.60;;
51525;SDS011;37611;51.794;21.590;2023-05-07T14:22:14;14.00;;;8.00;;
51525;SDS011;37611;51.794;21.590;2023-05-07T14:26:16;8.80;;;5.80;;
51525;SDS011;37611;51.794;21.590;2023-05-07T14:30:19;5.80;;;4.50;;
51525;SDS011;37611;51.794;21.590;2023-05-07T14:34:21;5.30;;;4.20;;
51525;SDS011;37611;51.794;21.590;2023-05-07T14:38:23;5.10;;;4.00;;
51525;SDS011;37611;51.794;21.590;2023-05-07T14:42:24;5.00;;;3.70;;
51525;SDS011;37611;51.794;21.590;2023-05-07T14:46:26;8.10;;;6.40;;
51525;SDS011;37611;51.794;21.590;2023-05-07T14:50:28;6.60;;;5.30;;
51525;SDS011;37611;51.794;21.590;2023-05-07T14:54:30;7.40;;;6.20;;
51525;SDS011;37611;51.794;21.590;2023-05-07T14:58:31;8.70;;;6.10;;
51525;SDS011;37611;51.794;21.590;2023-05-07T15:02:33;11.90;;;4.80;;
51525;SDS011;37611;51.794;21.590;2023-05-07T15:06:36;10.00;;;6.80;;
51525;SDS011;37611;51.794;21.590;2023-05-07T15:10:38;9.00;;;6.30;;
51525;SDS011;37611;51.794;21.590;2023-05-07T15:14:43;10.90;;;9.30;;
51525;SDS011;37611;51.794;21.590;2023-05-07T15:18:45;12.70;;;7.50;;
51525;SDS011;37611;51.794;21.590;2023-05-07T15:22:47;5.60;;;3.70;;
51525;SDS011;37611;51.794;21.590;2023-05-07T15:26:48;12.80;;;7.10;;
51525;SDS011;37611;51.794;21.590;2023-05-07T15:30:50;6.10;;;4.50;;
51525;SDS011;37611;51.794;21.590;2023-05-07T15:34:52;19.00;;;11.90;;
51525;SDS011;37611;51.794;21.590;2023-05-07T15:38:54;26.20;;;17.70;;
51525;SDS011;37611;51.794;21.590;2023-05-07T15:42:56;6.20;;;4.10;;
51525;SDS011;37611;51.794;21.590;2023-05-07T15:46:58;7.50;;;4.30;;
51525;SDS011;37611;51.794;21.590;2023-05-07T15:51:01;5.80;;;4.00;;
51525;SDS011;37611;51.794;21.590;2023-05-07T15:55:04;5.50;;;3.80;;
51525;SDS011;37611;51.794;21.590;2023-05-07T15:59:07;7.30;;;5.70;;
51525;SDS011;37611;51.794;21.590;2023-05-07T16:03:10;8.50;;;5.70;;
51525;SDS011;37611;51.794;21.590;2023-05-07T16:07:12;9.70;;;7.50;;
51525;SDS011;37611;51.794;21.590;2023-05-07T16:11:14;11.90;;;8.50;;
51525;SDS011;37611;51.794;21.590;2023-05-07T16:15:16;18.40;;;12.50;;
51525;SDS011;37611;51.794;21.590;2023-05-07T16:19:18;17.30;;;13.40;;
51525;SDS011;37611;51.794;21.590;2023-05-07T16:23:19;13.40;;;9.50;;
51525;SDS011;37611;51.794;21.590;2023-05-07T16:27:22;9.70;;;6.90;;
51525;SDS011;37611;51.794;21.590;2023-05-07T16:31:24;8.80;;;5.20;;
51525;SDS011;37611;51.794;21.590;2023-05-07T16:35:26;5.90;;;4.50;;
51525;SDS011;37611;51.794;21.590;2023-05-07T16:39:27;9.20;;;5.10;;
51525;SDS011;37611;51.794;21.590;2023-05-07T16:43:29;12.00;;;7.00;;
51525;SDS011;37611;51.794;21.590;2023-05-07T16:47:31;6.30;;;5.20;;
51525;SDS011;37611;51.794;21.590;2023-05-07T16:51:33;8.30;;;7.00;;
51525;SDS011;37611;51.794;21.590;2023-05-07T16:55:36;8.60;;;6.80;;
51525;SDS011;37611;51.794;21.590;2023-05-07T16:59:42;6.80;;;5.30;;
51525;SDS011;37611;51.794;21.590;2023-05-07T17:03:44;15.10;;;10.10;;
51525;SDS011;37611;51.794;21.590;2023-05-07T17:07:46;28.80;;;18.80;;
51525;SDS011;37611;51.794;21.590;2023-05-07T17:11:48;97.60;;;57.90;;
51525;SDS011;37611;51.794;21.590;2023-05-07T17:15:49;17.90;;;9.80;;
51525;SDS011;37611;51.794;21.590;2023-05-07T17:19:51;9.90;;;5.90;;
51525;SDS011;37611;51.794;21.590;2023-05-07T17:23:53;7.30;;;5.00;;
51525;SDS011;37611;51.794;21.590;2023-05-07T17:27:55;12.70;;;8.00;;
51525;SDS011;37611;51.794;21.590;2023-05-07T17:31:56;13.70;;;8.50;;
51525;SDS011;37611;51.794;21.590;2023-05-07T17:40:36;19.60;;;17.50;;
51525;SDS011;37611;51.794;21.590;2023-05-07T17:44:38;29.90;;;25.70;;
51525;SDS011;37611;51.794;21.590;2023-05-07T17:48:42;73.30;;;41.00;;
51525;SDS011;37611;51.794;21.590;2023-05-07T17:52:52;188.40;;;94.40;;
51525;SDS011;37611;51.794;21.590;2023-05-07T17:56:54;57.00;;;33.60;;
51525;SDS011;37611;51.794;21.590;2023-05-07T18:00:56;78.80;;;35.50;;
51525;SDS011;37611;51.794;21.590;2023-05-07T18:04:58;43.40;;;26.40;;
51525;SDS011;37611;51.794;21.590;2023-05-07T18:09:00;59.20;;;37.20;;
51525;SDS011;37611;51.794;21.590;2023-05-07T18:13:02;169.70;;;91.10;;
51525;SDS011;37611;51.794;21.590;2023-05-07T18:17:04;132.10;;;71.50;;
51525;SDS011;37611;51.794;21.590;2023-05-07T18:21:15;200.70;;;120.40;;
51525;SDS011;37611;51.794;21.590;2023-05-07T18:25:19;269.30;;;164.30;;
51525;SDS011;37611;51.794;21.590;2023-05-07T18:29:21;83.90;;;46.20;;
51525;SDS011;37611;51.794;21.590;2023-05-07T18:33:23;106.30;;;62.00;;
51525;SDS011;37611;51.794;21.590;2023-05-07T18:37:26;113.00;;;64.90;;
51525;SDS011;37611;51.794;21.590;2023-05-07T18:41:28;79.50;;;55.40;;
51525;SDS011;37611;51.794;21.590;2023-05-07T18:45:29;128.70;;;63.90;;
51525;SDS011;37611;51.794;21.590;2023-05-07T18:49:32;134.30;;;75.90;;
51525;SDS011;37611;51.794;21.590;2023-05-07T18:53:34;119.10;;;74.90;;
51525;SDS011;37611;51.794;21.590;2023-05-07T18:57:36;114.70;;;67.50;;
51525;SDS011;37611;51.794;21.590;2023-05-07T19:01:38;100.00;;;59.50;;
51525;SDS011;37611;51.794;21.590;2023-05-07T19:05:42;98.30;;;60.40;;
51525;SDS011;37611;51.794;21.590;2023-05-07T19:09:45;97.20;;;60.60;;
51525;SDS011;37611;51.794;21.590;2023-05-07T19:13:47;79.00;;;52.20;;
51525;SDS011;37611;51.794;21.590;2023-05-07T19:17:49;75.70;;;46.00;;
51525;SDS011;37611;51.794;21.590;2023-05-07T19:21:51;73.90;;;45.40;;
51525;SDS011;37611;51.794;21.590;2023-05-07T19:25:53;83.80;;;50.20;;
51525;SDS011;37611;51.794;21.590;2023-05-07T19:29:55;106.90;;;57.50;;
51525;SDS011;37611;51.794;21.590;2023-05-07T19:33:58;109.30;;;62.60;;
51525;SDS011;37611;51.794;21.590;2023-05-07T19:38:00;105.60;;;63.00;;
51525;SDS011;37611;51.794;21.590;2023-05-07T19:42:02;119.80;;;60.90;;
51525;SDS011;37611;51.794;21.590;2023-05-07T19:46:04;110.90;;;59.20;;
51525;SDS011;37611;51.794;21.590;2023-05-07T19:50:07;90.80;;;54.00;;
51525;SDS011;37611;51.794;21.590;2023-05-07T19:54:09;81.10;;;48.80;;
51525;SDS011;37611;51.794;21.590;2023-05-07T19:58:11;63.40;;;42.20;;
51525;SDS011;37611;51.794;21.590;2023-05-07T20:02:12;56.70;;;37.00;;
51525;SDS011;37611;51.794;21.590;2023-05-07T20:06:15;49.60;;;31.50;;
51525;SDS011;37611;51.794;21.590;2023-05-07T20:10:17;54.10;;;32.20;;
51525;SDS011;37611;51.794;21.590;2023-05-07T20:14:19;43.30;;;27.50;;
51525;SDS011;37611;51.794;21.590;2023-05-07T20:18:21;48.40;;;33.10;;
51525;SDS011;37611;51.794;21.590;2023-05-07T20:22:22;47.90;;;34.20;;
51525;SDS011;37611;51.794;21.590;2023-05-07T20:26:25;42.90;;;32.00;;
51525;SDS011;37611;51.794;21.590;2023-05-07T20:30:27;48.70;;;33.80;;
51525;SDS011;37611;51.794;21.590;2023-05-07T20:34:29;46.80;;;31.60;;
51525;SDS011;37611;51.794;21.590;2023-05-07T20:38:30;35.80;;;29.00;;
51525;SDS011;37611;51.794;21.590;2023-05-07T20:42:34;34.70;;;26.80;;
51525;SDS011;37611;51.794;21.590;2023-05-07T20:46:36;47.10;;;30.60;;
51525;SDS011;37611;51.794;21.590;2023-05-07T20:50:39;53.80;;;33.10;;
51525;SDS011;37611;51.794;21.590;2023-05-07T20:54:40;44.80;;;34.20;;
51525;SDS011;37611;51.794;21.590;2023-05-07T20:58:44;44.00;;;31.70;;
51525;SDS011;37611;51.794;21.590;2023-05-07T21:02:47;55.30;;;36.20;;
51525;SDS011;37611;51.794;21.590;2023-05-07T21:06:49;58.00;;;33.70;;
51525;SDS011;37611;51.794;21.590;2023-05-07T21:10:51;49.90;;;32.40;;
51525;SDS011;37611;51.794;21.590;2023-05-07T21:14:55;47.20;;;26.40;;
51525;SDS011;37611;51.794;21.590;2023-05-07T21:18:57;51.30;;;27.20;;
51525;SDS011;37611;51.794;21.590;2023-05-07T21:22:58;51.50;;;27.00;;
51525;SDS011;37611;51.794;21.590;2023-05-07T21:27:00;52.40;;;27.40;;
51525;SDS011;37611;51.794;21.590;2023-05-07T21:31:03;48.50;;;26.60;;
51525;SDS011;37611;51.794;21.590;2023-05-07T21:35:05;57.60;;;25.90;;
51525;SDS011;37611;51.794;21.590;2023-05-07T21:39:07;42.70;;;22.20;;
51525;SDS011;37611;51.794;21.590;2023-05-07T21:43:09;33.70;;;18.60;;
51525;SDS011;37611;51.794;21.590;2023-05-07T21:47:11;31.70;;;17.60;;
51525;SDS011;37611;51.794;21.590;2023-05-07T21:51:13;29.90;;;17.20;;
51525;SDS011;37611;51.794;21.590;2023-05-07T21:55:16;38.00;;;20.50;;
51525;SDS011;37611;51.794;21.590;2023-05-07T21:59:18;42.00;;;21.10;;
51525;SDS011;37611;51.794;21.590;2023-05-07T22:03:20;44.00;;;23.20;;
51525;SDS011;37611;51.794;21.590;2023-05-07T22:07:22;38.60;;;20.10;;
51525;SDS011;37611;51.794;21.590;2023-05-07T22:11:24;35.50;;;18.80;;
51525;SDS011;37611;51.794;21.590;2023-05-07T22:15:26;34.70;;;18.00;;
51525;SDS011;37611;51.794;21.590;2023-05-07T22:19:28;33.30;;;18.70;;
51525;SDS011;37611;51.794;21.590;2023-05-07T22:23:30;39.10;;;19.20;;
51525;SDS011;37611;51.794;21.590;2023-05-07T22:27:32;45.50;;;21.60;;
51525;SDS011;37611;51.794;21.590;2023-05-07T22:31:33;39.40;;;19.30;;
51525;SDS011;37611;51.794;21.590;2023-05-07T22:35:35;29.40;;;17.00;;
51525;SDS011;37611;51.794;21.590;2023-05-07T22:39:37;26.70;;;15.00;;
51525;SDS011;37611;51.794;21.590;2023-05-07T22:43:38;26.30;;;15.20;;
51525;SDS011;37611;51.794;21.590;2023-05-07T22:47:40;31.90;;;16.00;;
51525;SDS011;37611;51.794;21.590;2023-05-07T22:51:42;26.90;;;15.10;;
51525;SDS011;37611;51.794;21.590;2023-05-07T22:55:44;27.10;;;13.50;;
51525;SDS011;37611;51.794;21.590;2023-05-07T22:59:46;32.20;;;15.30;;
51525;SDS011;37611;51.794;21.590;2023-05-07T23:03:48;31.90;;;16.30;;
51525;SDS011;37611;51.794;21.590;2023-05-07T23:07:50;30.60;;;15.20;;
51525;SDS011;37611;51.794;21.590;2023-05-07T23:11:51;26.80;;;15.50;;
51525;SDS011;37611;51.794;21.590;2023-05-07T23:15:53;19.90;;;12.30;;
51525;SDS011;37611;51.794;21.590;2023-05-07T23:19:55;19.40;;;11.60;;
51525;SDS011;37611;51.794;21.590;2023-05-07T23:23:57;15.10;;;9.40;;
51525;SDS011;37611;51.794;21.590;2023-05-07T23:27:59;13.20;;;8.80;;
51525;SDS011;37611;51.794;21.590;2023-05-07T23:32:01;11.10;;;7.80;;
51525;SDS011;37611;51.794;21.590;2023-05-07T23:36:04;11.90;;;8.20;;
51525;SDS011;37611;51.794;21.590;2023-05-07T23:40:06;10.00;;;7.30;;
51525;SDS011;37611;51.794;21.590;2023-05-07T23:44:08;12.70;;;8.40;;
51525;SDS011;37611;51.794;21.590;2023-05-07T23:48:13;11.70;;;7.80;;
51525;SDS011;37611;51.794;21.590;2023-05-07T23:52:15;8.80;;;6.30;;
51525;SDS011;37611;51.794;21.590;2023-05-07T23:56:17;10.50;;;6.80;;
